sensor_id;sensor_type;location;lat;lon;timestamp;pressure;altitude;pressure_sealevel;temperature;humidity
3697;BME280;60662;48.810;8.872;2023-03-14T07:10:28;94633.81;;;9.78;74.40
3697;BME280;60662;48.810;8.872;2023-03-14T07:11:29;94638.22;;;9.78;73.73
3697;BME280;60662;48.810;8.872;2023-03-14T07:13:32;94621.69;;;10.02;72.49
3697;BME280;60662;48.810;8.872;2023-03-14T07:14:33;94633.78;;;10.03;72.27
3697;BME280;60662;48.810;8.872;2023-03-14T07:15:34;94625.63;;;10.07;71.37
3697;BME280;60662;48.810;8.872;2023-03-14T07:16:37;94633.22;;;10.10;71.55
3697;BME280;60662;48.810;8.872;2023-03-14T07:17:38;94626.72;;;10.16;71.07
3697;BME280;60662;48.810;8.872;2023-03-14T07:18:39;94637.88;;;10.29;71.41
3697;BME280;60662;48.810;8.872;2023-03-14T07:19:41;94628.47;;;10.40;71.13
3697;BME280;60662;48.810;8.872;2023-03-14T07:20:45;94641.75;;;10.48;70.15
3697;BME280;60662;48.810;8.872;2023-03-14T07:21:47;94638.19;;;10.60;69.70
3697;BME280;60662;48.810;8.872;2023-03-14T07:22:49;94641.41;;;10.64;69.56
3697;BME280;60662;48.810;8.872;2023-03-14T07:23:50;94643.63;;;10.57;69.95
3697;BME280;60662;48.810;8.872;2023-03-14T07:24:52;94640.56;;;10.64;69.41
3697;BME280;60662;48.810;8.872;2023-03-14T07:25:53;94641.38;;;10.87;69.37
3697;BME280;60662;48.810;8.872;2023-03-14T07:26:55;94641.03;;;11.14;68.67
3697;BME280;60662;48.810;8.872;2023-03-14T07:27:56;94650.03;;;11.21;68.80
3697;BME280;60662;48.810;8.872;2023-03-14T07:28:58;94641.81;;;11.26;67.49
3697;BME280;60662;48.810;8.872;2023-03-14T07:29:59;94642.53;;;11.28;67.97
3697;BME280;60662;48.810;8.872;2023-03-14T07:31:01;94648.50;;;11.30;68.32
3697;BME280;60662;48.810;8.872;2023-03-14T07:32:02;94648.22;;;11.33;67.79
3697;BME280;60662;48.810;8.872;2023-03-14T07:33:04;94650.25;;;11.30;67.67
3697;BME280;60662;48.810;8.872;2023-03-14T07:34:05;94628.97;;;11.46;67.50
3697;BME280;60662;48.810;8.872;2023-03-14T07:35:07;94652.19;;;11.27;67.30
3697;BME280;60662;48.810;8.872;2023-03-14T07:36:09;94637.22;;;11.62;67.19
3697;BME280;60662;48.810;8.872;2023-03-14T07:37:11;94659.03;;;11.40;66.44
3697;BME280;60662;48.810;8.872;2023-03-14T07:38:12;94646.25;;;11.03;68.08
3697;BME280;60662;48.810;8.872;2023-03-14T07:39:14;94653.25;;;10.45;68.69
3697;BME280;60662;48.810;8.872;2023-03-14T07:40:15;94655.84;;;10.45;69.95
3697;BME280;60662;48.810;8.872;2023-03-14T07:41:16;94646.25;;;10.69;69.49
3697;BME280;60662;48.810;8.872;2023-03-14T07:42:18;94664.19;;;10.62;69.71
3697;BME280;60662;48.810;8.872;2023-03-14T07:43:19;94657.31;;;10.95;68.29
3697;BME280;60662;48.810;8.872;2023-03-14T07:44:21;94646.88;;;11.50;67.24
3697;BME280;60662;48.810;8.872;2023-03-14T07:45:22;94668.97;;;11.57;66.80
3697;BME280;60662;48.810;8.872;2023-03-14T07:46:25;94662.78;;;11.58;66.59
3697;BME280;60662;48.810;8.872;2023-03-14T07:47:26;94657.56;;;11.58;66.01
3697;BME280;60662;48.810;8.872;2023-03-14T07:48:28;94663.72;;;11.57;66.12
3697;BME280;60662;48.810;8.872;2023-03-14T07:49:30;94659.56;;;11.11;67.75
3697;BME280;60662;48.810;8.872;2023-03-14T07:50:31;94653.31;;;11.35;67.52
3697;BME280;60662;48.810;8.872;2023-03-14T07:51:32;94668.41;;;11.42;67.14
3697;BME280;60662;48.810;8.872;2023-03-14T07:52:34;94659.25;;;11.48;67.46
3697;BME280;60662;48.810;8.872;2023-03-14T07:53:35;94648.28;;;11.66;65.84
3697;BME280;60662;48.810;8.872;2023-03-14T07:54:37;94654.69;;;11.94;65.49
3697;BME280;60662;48.810;8.872;2023-03-14T07:55:40;94667.09;;;11.81;65.54
3697;BME280;60662;48.810;8.872;2023-03-14T07:56:41;94650.88;;;11.22;66.00
3697;BME280;60662;48.810;8.872;2023-03-14T07:57:42;94659.44;;;11.13;66.08
3697;BME280;60662;48.810;8.872;2023-03-14T07:58:44;94650.78;;;10.89;66.90
3697;BME280;60662;48.810;8.872;2023-03-14T07:59:45;94658.59;;;10.44;69.27
3697;BME280;60662;48.810;8.872;2023-03-14T08:00:47;94671.19;;;10.15;69.65
3697;BME280;60662;48.810;8.872;2023-03-14T08:01:49;94644.38;;;10.12;70.74
3697;BME280;60662;48.810;8.872;2023-03-14T08:02:50;94660.72;;;10.39;69.45
3697;BME280;60662;48.810;8.872;2023-03-14T08:03:52;94647.66;;;10.03;70.06
3697;BME280;60662;48.810;8.872;2023-03-14T08:04:53;94657.06;;;9.82;71.17
3697;BME280;60662;48.810;8.872;2023-03-14T08:05:55;94638.06;;;9.68;71.62
3697;BME280;60662;48.810;8.872;2023-03-14T08:06:56;94652.38;;;9.62;72.34
3697;BME280;60662;48.810;8.872;2023-03-14T08:07:58;94659.16;;;9.52;72.72
3697;BME280;60662;48.810;8.872;2023-03-14T08:08:59;94636.06;;;9.47;72.51
3697;BME280;60662;48.810;8.872;2023-03-14T08:10:00;94639.72;;;9.45;73.24
3697;BME280;60662;48.810;8.872;2023-03-14T08:11:04;94641.28;;;9.47;72.32
3697;BME280;60662;48.810;8.872;2023-03-14T08:12:06;94632.28;;;9.76;70.96
3697;BME280;60662;48.810;8.872;2023-03-14T08:13:09;94650.94;;;9.94;70.86
3697;BME280;60662;48.810;8.872;2023-03-14T08:14:11;94648.91;;;9.86;71.35
3697;BME280;60662;48.810;8.872;2023-03-14T08:15:13;94655.38;;;10.05;69.75
3697;BME280;60662;48.810;8.872;2023-03-14T08:16:14;94640.97;;;10.35;69.10
3697;BME280;60662;48.810;8.872;2023-03-14T08:17:16;94655.91;;;10.33;68.39
3697;BME280;60662;48.810;8.872;2023-03-14T08:18:17;94652.94;;;10.26;68.49
3697;BME280;60662;48.810;8.872;2023-03-14T08:19:18;94677.81;;;10.54;68.11
3697;BME280;60662;48.810;8.872;2023-03-14T08:20:21;94669.88;;;11.24;66.01
3697;BME280;60662;48.810;8.872;2023-03-14T08:21:23;94655.38;;;11.75;63.86
3697;BME280;60662;48.810;8.872;2023-03-14T08:22:24;94657.31;;;12.05;63.96
3697;BME280;60662;48.810;8.872;2023-03-14T08:23:26;94659.34;;;12.44;62.72
3697;BME280;60662;48.810;8.872;2023-03-14T08:24:27;94657.47;;;12.77;61.58
3697;BME280;60662;48.810;8.872;2023-03-14T08:25:29;94653.94;;;12.57;61.00
3697;BME280;60662;48.810;8.872;2023-03-14T08:26:31;94649.53;;;12.15;62.26
3697;BME280;60662;48.810;8.872;2023-03-14T08:27:32;94654.13;;;11.58;64.09
3697;BME280;60662;48.810;8.872;2023-03-14T08:28:34;94673.28;;;11.47;64.64
3697;BME280;60662;48.810;8.872;2023-03-14T08:29:35;94658.56;;;11.23;65.72
3697;BME280;60662;48.810;8.872;2023-03-14T08:30:36;94677.78;;;11.45;65.45
3697;BME280;60662;48.810;8.872;2023-03-14T08:31:38;94672.63;;;11.11;65.77
3697;BME280;60662;48.810;8.872;2023-03-14T08:32:40;94661.81;;;10.82;66.78
3697;BME280;60662;48.810;8.872;2023-03-14T08:33:41;94657.91;;;10.76;67.39
3697;BME280;60662;48.810;8.872;2023-03-14T08:34:43;94663.94;;;10.65;68.31
3697;BME280;60662;48.810;8.872;2023-03-14T08:35:44;94671.16;;;10.39;68.12
3697;BME280;60662;48.810;8.872;2023-03-14T08:36:45;94649.59;;;10.12;68.93
3697;BME280;60662;48.810;8.872;2023-03-14T08:37:47;94675.09;;;10.20;68.91
3697;BME280;60662;48.810;8.872;2023-03-14T08:38:48;94667.41;;;10.30;69.12
3697;BME280;60662;48.810;8.872;2023-03-14T08:39:50;94688.59;;;10.14;69.67
3697;BME280;60662;48.810;8.872;2023-03-14T08:40:57;94665.44;;;9.98;70.03
3697;BME280;60662;48.810;8.872;2023-03-14T08:41:59;94677.94;;;9.82;70.28
3697;BME280;60662;48.810;8.872;2023-03-14T08:43:00;94675.16;;;9.72;71.47
3697;BME280;60662;48.810;8.872;2023-03-14T08:44:02;94677.59;;;9.62;71.71
3697;BME280;60662;48.810;8.872;2023-03-14T08:45:04;94673.38;;;9.48;71.81
3697;BME280;60662;48.810;8.872;2023-03-14T08:46:05;94694.56;;;9.43;72.55
3697;BME280;60662;48.810;8.872;2023-03-14T08:47:07;94671.75;;;9.34;72.88
3697;BME280;60662;48.810;8.872;2023-03-14T08:48:08;94681.34;;;9.34;73.07
3697;BME280;60662;48.810;8.872;2023-03-14T08:49:10;94659.59;;;9.22;73.49
3697;BME280;60662;48.810;8.872;2023-03-14T08:50:12;94669.50;;;9.29;73.72
3697;BME280;60662;48.810;8.872;2023-03-14T08:51:16;94682.00;;;9.24;73.31
3697;BME280;60662;48.810;8.872;2023-03-14T08:52:19;94660.03;;;9.15;73.25
3697;BME280;60662;48.810;8.872;2023-03-14T08:53:20;94687.53;;;9.20;73.80
3697;BME280;60662;48.810;8.872;2023-03-14T08:54:23;94673.47;;;9.22;74.20
3697;BME280;60662;48.810;8.872;2023-03-14T08:55:26;94670.66;;;9.12;74.36
3697;BME280;60662;48.810;8.872;2023-03-14T08:56:28;94677.03;;;9.08;75.30
3697;BME280;60662;48.810;8.872;2023-03-14T08:57:29;94684.09;;;9.06;76.48
3697;BME280;60662;48.810;8.872;2023-03-14T08:58:31;94686.19;;;9.01;77.11
3697;BME280;60662;48.810;8.872;2023-03-14T08:59:33;94688.09;;;8.99;77.00
3697;BME280;60662;48.810;8.872;2023-03-14T09:00:34;94683.94;;;8.96;77.08
3697;BME280;60662;48.810;8.872;2023-03-14T09:01:36;94688.91;;;8.99;76.38
3697;BME280;60662;48.810;8.872;2023-03-14T09:02:38;94690.91;;;8.96;76.36
3697;BME280;60662;48.810;8.872;2023-03-14T09:03:39;94692.88;;;8.92;76.68
3697;BME280;60662;48.810;8.872;2023-03-14T09:04:40;94695.16;;;8.97;76.82
3697;BME280;60662;48.810;8.872;2023-03-14T09:05:42;94691.75;;;8.96;77.04
3697;BME280;60662;48.810;8.872;2023-03-14T09:06:43;94704.53;;;8.99;77.40
3697;BME280;60662;48.810;8.872;2023-03-14T09:07:45;94707.97;;;9.00;77.72
3697;BME280;60662;48.810;8.872;2023-03-14T09:08:47;94687.91;;;8.89;77.24
3697;BME280;60662;48.810;8.872;2023-03-14T09:09:48;94707.16;;;8.87;77.70
3697;BME280;60662;48.810;8.872;2023-03-14T09:10:50;94709.13;;;8.83;78.15
3697;BME280;60662;48.810;8.872;2023-03-14T09:11:51;94705.78;;;8.81;77.98
3697;BME280;60662;48.810;8.872;2023-03-14T09:12:52;94708.09;;;8.86;78.53
3697;BME280;60662;48.810;8.872;2023-03-14T09:22:34;94717.13;;;9.06;77.02
3697;BME280;60662;48.810;8.872;2023-03-14T09:23:37;94699.31;;;9.12;76.27
3697;BME280;60662;48.810;8.872;2023-03-14T09:24:40;94703.56;;;9.13;76.03
3697;BME280;60662;48.810;8.872;2023-03-14T09:25:41;94721.34;;;9.32;76.00
3697;BME280;60662;48.810;8.872;2023-03-14T09:26:43;94721.84;;;9.38;75.87
3697;BME280;60662;48.810;8.872;2023-03-14T09:27:44;94729.47;;;9.28;75.55
3697;BME280;60662;48.810;8.872;2023-03-14T09:28:46;94728.97;;;9.23;76.28
3697;BME280;60662;48.810;8.872;2023-03-14T09:29:47;94725.75;;;9.32;76.95
3697;BME280;60662;48.810;8.872;2023-03-14T09:30:48;94718.78;;;9.20;76.20
3697;BME280;60662;48.810;8.872;2023-03-14T09:31:50;94730.00;;;9.20;77.00
3697;BME280;60662;48.810;8.872;2023-03-14T09:32:52;94730.09;;;9.31;77.03
3697;BME280;60662;48.810;8.872;2023-03-14T09:33:53;94732.00;;;9.29;77.19
3697;BME280;60662;48.810;8.872;2023-03-14T09:34:55;94738.97;;;9.29;77.30
3697;BME280;60662;48.810;8.872;2023-03-14T09:35:58;94730.13;;;9.19;77.39
3697;BME280;60662;48.810;8.872;2023-03-14T09:37:01;94744.69;;;9.21;77.70
3697;BME280;60662;48.810;8.872;2023-03-14T09:38:02;94719.88;;;8.91;78.11
3697;BME280;60662;48.810;8.872;2023-03-14T09:39:04;94731.00;;;8.93;78.51
3697;BME280;60662;48.810;8.872;2023-03-14T09:40:06;94737.63;;;8.97;78.97
3697;BME280;60662;48.810;8.872;2023-03-14T09:41:25;94744.84;;;8.94;79.30
3697;BME280;60662;48.810;8.872;2023-03-14T09:42:27;94739.03;;;8.90;79.49
3697;BME280;60662;48.810;8.872;2023-03-14T09:43:31;94742.25;;;9.07;79.58
3697;BME280;60662;48.810;8.872;2023-03-14T09:44:38;94745.13;;;9.15;79.62
3697;BME280;60662;48.810;8.872;2023-03-14T09:45:41;94759.19;;;9.12;79.27
3697;BME280;60662;48.810;8.872;2023-03-14T09:46:50;94747.09;;;9.11;79.38
3697;BME280;60662;48.810;8.872;2023-03-14T09:47:54;94752.81;;;9.17;78.86
3697;BME280;60662;48.810;8.872;2023-03-14T09:49:00;94750.44;;;9.13;79.46
3697;BME280;60662;48.810;8.872;2023-03-14T09:50:03;94751.47;;;9.24;79.12
3697;BME280;60662;48.810;8.872;2023-03-14T09:51:11;94725.59;;;9.46;78.48
3697;BME280;60662;48.810;8.872;2023-03-14T09:53:28;94745.22;;;10.72;73.32
3697;BME280;60662;48.810;8.872;2023-03-14T09:54:40;94753.31;;;10.91;72.06
3697;BME280;60662;48.810;8.872;2023-03-14T09:55:45;94748.09;;;10.91;71.92
3697;BME280;60662;48.810;8.872;2023-03-14T09:56:48;94738.34;;;11.62;70.46
3697;BME280;60662;48.810;8.872;2023-03-14T09:57:54;94745.53;;;12.03;68.70
3697;BME280;60662;48.810;8.872;2023-03-14T09:59:00;94743.16;;;11.22;69.36
3697;BME280;60662;48.810;8.872;2023-03-14T10:00:05;94749.47;;;11.86;68.16
3697;BME280;60662;48.810;8.872;2023-03-14T10:01:16;94746.47;;;12.35;67.19
3697;BME280;60662;48.810;8.872;2023-03-14T10:02:23;94741.31;;;12.87;65.04
3697;BME280;60662;48.810;8.872;2023-03-14T10:03:33;94728.00;;;12.69;64.90
3697;BME280;60662;48.810;8.872;2023-03-14T10:04:34;94732.97;;;12.51;64.61
3697;BME280;60662;48.810;8.872;2023-03-14T10:05:38;94728.50;;;11.54;67.26
3697;BME280;60662;48.810;8.872;2023-03-14T10:06:39;94702.97;;;11.46;67.55
3697;BME280;60662;48.810;8.872;2023-03-14T10:07:41;94734.53;;;11.77;68.30
3697;BME280;60662;48.810;8.872;2023-03-14T10:08:44;94737.81;;;11.90;67.30
3697;BME280;60662;48.810;8.872;2023-03-14T10:09:49;94737.66;;;11.48;68.26
3697;BME280;60662;48.810;8.872;2023-03-14T10:10:51;94738.25;;;11.06;69.70
3697;BME280;60662;48.810;8.872;2023-03-14T10:11:57;94735.59;;;10.72;70.16
3697;BME280;60662;48.810;8.872;2023-03-14T10:14:11;94723.63;;;9.99;72.26
3697;BME280;60662;48.810;8.872;2023-03-14T10:15:30;94744.59;;;9.73;73.97
3697;BME280;60662;48.810;8.872;2023-03-14T10:16:43;94735.16;;;9.59;75.26
3697;BME280;60662;48.810;8.872;2023-03-14T10:17:49;94735.38;;;9.43;77.05
3697;BME280;60662;48.810;8.872;2023-03-14T10:18:51;94736.47;;;9.27;78.48
3697;BME280;60662;48.810;8.872;2023-03-14T10:20:00;94740.66;;;9.17;79.84
3697;BME280;60662;48.810;8.872;2023-03-14T10:21:28;94746.41;;;9.09;80.30
3697;BME280;60662;48.810;8.872;2023-03-14T10:22:31;94759.09;;;9.14;80.74
3697;BME280;60662;48.810;8.872;2023-03-14T10:23:33;94739.63;;;9.07;79.48
3697;BME280;60662;48.810;8.872;2023-03-14T10:24:35;94746.91;;;9.14;80.46
3697;BME280;60662;48.810;8.872;2023-03-14T10:25:39;94751.25;;;9.40;80.68
3697;BME280;60662;48.810;8.872;2023-03-14T10:26:41;94747.19;;;9.73;79.25
3697;BME280;60662;48.810;8.872;2023-03-14T10:27:42;94752.91;;;9.78;79.69
3697;BME280;60662;48.810;8.872;2023-03-14T10:28:47;94749.66;;;9.50;78.06
3697;BME280;60662;48.810;8.872;2023-03-14T10:29:54;94737.88;;;9.44;77.84
3697;BME280;60662;48.810;8.872;2023-03-14T10:31:00;94736.88;;;9.34;77.96
3697;BME280;60662;48.810;8.872;2023-03-14T10:32:06;94746.06;;;9.27;79.15
3697;BME280;60662;48.810;8.872;2023-03-14T10:34:24;94746.81;;;9.03;78.19
3697;BME280;60662;48.810;8.872;2023-03-14T10:35:25;94748.16;;;9.09;78.46
3697;BME280;60662;48.810;8.872;2023-03-14T10:36:31;94751.16;;;9.03;78.54
3697;BME280;60662;48.810;8.872;2023-03-14T10:37:34;94758.69;;;8.94;79.44
3697;BME280;60662;48.810;8.872;2023-03-14T10:38:36;94762.75;;;8.86;79.90
3697;BME280;60662;48.810;8.872;2023-03-14T10:39:48;94757.03;;;8.80;80.28
3697;BME280;60662;48.810;8.872;2023-03-14T10:40:52;94762.63;;;8.74;80.39
3697;BME280;60662;48.810;8.872;2023-03-14T10:42:03;94758.38;;;8.73;81.85
3697;BME280;60662;48.810;8.872;2023-03-14T10:43:11;94764.31;;;8.75;82.49
3697;BME280;60662;48.810;8.872;2023-03-14T10:44:15;94767.22;;;8.71;81.98
3697;BME280;60662;48.810;8.872;2023-03-14T10:45:31;94783.16;;;8.66;82.70
3697;BME280;60662;48.810;8.872;2023-03-14T10:46:33;94769.63;;;8.61;82.79
3697;BME280;60662;48.810;8.872;2023-03-14T10:47:35;94771.25;;;8.62;83.03
3697;BME280;60662;48.810;8.872;2023-03-14T10:48:38;94764.91;;;8.53;83.26
3697;BME280;60662;48.810;8.872;2023-03-14T10:49:40;94772.00;;;8.51;82.98
3697;BME280;60662;48.810;8.872;2023-03-14T11:50:09;94841.16;;;8.26;87.69
3697;BME280;60662;48.810;8.872;2023-03-14T12:09:25;94914.06;;;7.97;89.03
3697;BME280;60662;48.810;8.872;2023-03-14T12:10:27;94904.66;;;8.09;87.31
3697;BME280;60662;48.810;8.872;2023-03-14T12:12:39;94925.47;;;7.95;86.24
3697;BME280;60662;48.810;8.872;2023-03-14T12:13:46;94928.16;;;7.79;84.53
3697;BME280;60662;48.810;8.872;2023-03-14T12:14:55;94924.19;;;7.88;86.14
3697;BME280;60662;48.810;8.872;2023-03-14T12:16:00;94939.66;;;7.89;86.04
3697;BME280;60662;48.810;8.872;2023-03-14T12:17:07;94952.38;;;7.79;86.24
3697;BME280;60662;48.810;8.872;2023-03-14T12:18:28;94967.78;;;7.68;87.02
3697;BME280;60662;48.810;8.872;2023-03-14T12:19:33;94975.09;;;7.47;84.76
3697;BME280;60662;48.810;8.872;2023-03-14T12:20:36;94962.41;;;7.12;83.28
3697;BME280;60662;48.810;8.872;2023-03-14T12:21:49;94986.31;;;7.02;81.35
3697;BME280;60662;48.810;8.872;2023-03-14T12:22:55;94990.28;;;7.08;81.27
3697;BME280;60662;48.810;8.872;2023-03-14T12:23:58;95005.31;;;7.78;79.42
3697;BME280;60662;48.810;8.872;2023-03-14T12:28:41;95019.41;;;8.32;75.33
3697;BME280;60662;48.810;8.872;2023-03-14T12:29:15;95007.31;;;8.87;74.27
3697;BME280;60662;48.810;8.872;2023-03-14T12:31:43;95000.16;;;9.18;68.93
3697;BME280;60662;48.810;8.872;2023-03-14T12:41:11;94999.09;;;9.74;61.71
3697;BME280;60662;48.810;8.872;2023-03-14T12:43:45;95015.78;;;9.97;63.14
3697;BME280;60662;48.810;8.872;2023-03-14T12:44:48;95020.44;;;9.66;62.30
3697;BME280;60662;48.810;8.872;2023-03-14T12:48:39;95024.69;;;9.41;62.13
3697;BME280;60662;48.810;8.872;2023-03-14T12:49:40;95033.28;;;9.29;61.83
3697;BME280;60662;48.810;8.872;2023-03-14T12:50:43;95028.28;;;8.98;62.54
3697;BME280;60662;48.810;8.872;2023-03-14T12:51:45;95025.59;;;8.44;65.65
3697;BME280;60662;48.810;8.872;2023-03-14T12:53:26;95033.41;;;8.73;66.01
3697;BME280;60662;48.810;8.872;2023-03-14T12:57:15;95043.06;;;9.25;63.95
3697;BME280;60662;48.810;8.872;2023-03-14T12:58:39;95049.13;;;8.98;65.16
3697;BME280;60662;48.810;8.872;2023-03-14T12:59:48;95056.06;;;8.85;61.61
3697;BME280;60662;48.810;8.872;2023-03-14T13:00:58;95060.38;;;8.28;63.08
3697;BME280;60662;48.810;8.872;2023-03-14T13:04:16;95050.69;;;8.45;61.98
3697;BME280;60662;48.810;8.872;2023-03-14T13:05:26;95069.69;;;8.89;61.84
3697;BME280;60662;48.810;8.872;2023-03-14T13:06:49;95077.06;;;8.39;61.97
3697;BME280;60662;48.810;8.872;2023-03-14T13:08:57;95073.66;;;8.53;62.45
3697;BME280;60662;48.810;8.872;2023-03-14T13:11:19;95088.53;;;7.77;61.29
3697;BME280;60662;48.810;8.872;2023-03-14T13:12:26;95074.31;;;7.38;61.10
3697;BME280;60662;48.810;8.872;2023-03-14T13:13:29;95104.50;;;7.24;60.86
3697;BME280;60662;48.810;8.872;2023-03-14T13:14:31;95090.47;;;7.12;61.62
3697;BME280;60662;48.810;8.872;2023-03-14T13:15:45;95103.31;;;7.30;63.53
3697;BME280;60662;48.810;8.872;2023-03-14T13:16:49;95099.56;;;7.19;63.50
3697;BME280;60662;48.810;8.872;2023-03-14T13:17:54;95102.47;;;7.29;63.48
3697;BME280;60662;48.810;8.872;2023-03-14T13:19:06;95102.38;;;7.31;63.12
3697;BME280;60662;48.810;8.872;2023-03-14T13:20:36;95108.41;;;7.47;63.20
3697;BME280;60662;48.810;8.872;2023-03-14T13:21:37;95107.44;;;7.34;62.33
3697;BME280;60662;48.810;8.872;2023-03-14T13:22:46;95115.56;;;7.28;62.21
3697;BME280;60662;48.810;8.872;2023-03-14T13:24:21;95129.88;;;7.19;62.75
3697;BME280;60662;48.810;8.872;2023-03-14T13:25:22;95114.13;;;7.22;63.04
3697;BME280;60662;48.810;8.872;2023-03-14T13:26:32;95136.47;;;7.41;63.15
3697;BME280;60662;48.810;8.872;2023-03-14T13:27:35;95134.03;;;7.38;63.37
3697;BME280;60662;48.810;8.872;2023-03-14T13:28:37;95146.88;;;7.25;62.79
3697;BME280;60662;48.810;8.872;2023-03-14T13:29:39;95144.97;;;7.12;62.96
3697;BME280;60662;48.810;8.872;2023-03-14T13:30:43;95157.19;;;7.10;62.63
3697;BME280;60662;48.810;8.872;2023-03-14T13:31:46;95148.47;;;7.11;61.97
3697;BME280;60662;48.810;8.872;2023-03-14T13:32:49;95165.06;;;7.09;60.80
3697;BME280;60662;48.810;8.872;2023-03-14T13:34:11;95175.53;;;7.23;61.08
3697;BME280;60662;48.810;8.872;2023-03-14T13:35:17;95189.41;;;7.22;61.51
3697;BME280;60662;48.810;8.872;2023-03-14T13:36:21;95178.88;;;7.09;60.39
3697;BME280;60662;48.810;8.872;2023-03-14T13:37:25;95188.34;;;7.10;60.49
3697;BME280;60662;48.810;8.872;2023-03-14T13:38:29;95195.63;;;7.03;58.79
3697;BME280;60662;48.810;8.872;2023-03-14T13:39:31;95193.50;;;6.94;58.97
3697;BME280;60662;48.810;8.872;2023-03-14T13:40:34;95189.66;;;7.01;59.54
3697;BME280;60662;48.810;8.872;2023-03-14T13:41:36;95206.44;;;6.96;59.67
3697;BME280;60662;48.810;8.872;2023-03-14T13:42:38;95207.44;;;6.93;59.61
3697;BME280;60662;48.810;8.872;2023-03-14T13:43:40;95201.56;;;6.90;59.37
3697;BME280;60662;48.810;8.872;2023-03-14T13:44:43;95216.13;;;6.92;59.34
3697;BME280;60662;48.810;8.872;2023-03-14T13:45:55;95218.78;;;6.91;58.45
3697;BME280;60662;48.810;8.872;2023-03-14T13:46:59;95217.53;;;6.98;59.19
3697;BME280;60662;48.810;8.872;2023-03-14T13:48:01;95237.06;;;7.05;58.73
3697;BME280;60662;48.810;8.872;2023-03-14T13:49:05;95260.56;;;7.02;58.43
3697;BME280;60662;48.810;8.872;2023-03-14T13:50:16;95242.41;;;7.02;58.39
3697;BME280;60662;48.810;8.872;2023-03-14T13:51:20;95246.84;;;7.00;57.77
3697;BME280;60662;48.810;8.872;2023-03-14T13:52:37;95245.78;;;7.04;57.67
3697;BME280;60662;48.810;8.872;2023-03-14T13:54:45;95267.44;;;7.03;58.20
3697;BME280;60662;48.810;8.872;2023-03-14T13:55:46;95262.94;;;7.07;57.61
3697;BME280;60662;48.810;8.872;2023-03-14T13:56:49;95263.34;;;6.99;55.73
3697;BME280;60662;48.810;8.872;2023-03-14T13:58:00;95234.56;;;6.70;54.91
3697;BME280;60662;48.810;8.872;2023-03-14T13:59:01;95284.69;;;6.70;55.45
3697;BME280;60662;48.810;8.872;2023-03-14T14:00:05;95271.47;;;6.75;55.15
3697;BME280;60662;48.810;8.872;2023-03-14T14:01:18;95283.13;;;6.84;55.24
3697;BME280;60662;48.810;8.872;2023-03-14T14:02:21;95276.97;;;6.69;53.89
3697;BME280;60662;48.810;8.872;2023-03-14T14:03:24;95301.00;;;6.73;54.63
3697;BME280;60662;48.810;8.872;2023-03-14T14:04:25;95283.63;;;6.57;54.48
3697;BME280;60662;48.810;8.872;2023-03-14T14:05:29;95308.19;;;6.67;54.96
3697;BME280;60662;48.810;8.872;2023-03-14T14:06:37;95303.09;;;6.66;56.24
3697;BME280;60662;48.810;8.872;2023-03-14T14:07:39;95278.44;;;6.40;55.50
3697;BME280;60662;48.810;8.872;2023-03-14T14:08:42;95324.75;;;6.65;56.01
3697;BME280;60662;48.810;8.872;2023-03-14T14:09:49;95312.03;;;6.60;56.38
3697;BME280;60662;48.810;8.872;2023-03-14T14:10:55;95301.50;;;6.46;56.43
3697;BME280;60662;48.810;8.872;2023-03-14T14:13:20;95332.22;;;6.71;57.61
3697;BME280;60662;48.810;8.872;2023-03-14T14:15:41;95344.13;;;6.58;55.68
3697;BME280;60662;48.810;8.872;2023-03-14T14:16:44;95331.78;;;6.45;56.45
3697;BME280;60662;48.810;8.872;2023-03-14T14:17:57;95340.16;;;6.50;55.93
3697;BME280;60662;48.810;8.872;2023-03-14T14:19:01;95342.53;;;6.55;56.68
3697;BME280;60662;48.810;8.872;2023-03-14T14:20:05;95347.34;;;6.63;57.18
3697;BME280;60662;48.810;8.872;2023-03-14T14:21:09;95350.94;;;6.60;56.68
3697;BME280;60662;48.810;8.872;2023-03-14T14:22:11;95332.00;;;6.58;56.39
3697;BME280;60662;48.810;8.872;2023-03-14T14:23:19;95340.25;;;6.49;55.95
3697;BME280;60662;48.810;8.872;2023-03-14T14:24:29;95353.59;;;6.59;57.23
3697;BME280;60662;48.810;8.872;2023-03-14T14:25:33;95350.56;;;6.68;57.41
3697;BME280;60662;48.810;8.872;2023-03-14T14:26:34;95354.50;;;6.75;57.56
3697;BME280;60662;48.810;8.872;2023-03-14T14:27:38;95367.56;;;6.74;57.08
3697;BME280;60662;48.810;8.872;2023-03-14T14:28:42;95357.78;;;6.79;57.39
3697;BME280;60662;48.810;8.872;2023-03-14T14:29:44;95371.66;;;6.78;56.47
3697;BME280;60662;48.810;8.872;2023-03-14T15:06:35;95365.66;;;6.77;56.82
3697;BME280;60662;48.810;8.872;2023-03-14T15:07:37;95371.44;;;7.17;55.90
3697;BME280;60662;48.810;8.872;2023-03-14T15:08:39;95376.63;;;7.00;56.41
3697;BME280;60662;48.810;8.872;2023-03-14T15:09:42;95381.53;;;6.89;56.51
3697;BME280;60662;48.810;8.872;2023-03-14T15:10:44;95386.03;;;6.85;56.69
3697;BME280;60662;48.810;8.872;2023-03-14T15:11:46;95374.44;;;6.75;57.04
3697;BME280;60662;48.810;8.872;2023-03-14T15:12:48;95374.97;;;6.81;57.03
3697;BME280;60662;48.810;8.872;2023-03-14T15:13:50;95379.84;;;6.88;57.52
3697;BME280;60662;48.810;8.872;2023-03-14T15:14:52;95373.88;;;6.85;57.93
3697;BME280;60662;48.810;8.872;2023-03-14T15:15:53;95377.63;;;6.80;58.41
3697;BME280;60662;48.810;8.872;2023-03-14T15:16:57;95385.41;;;6.80;58.28
3697;BME280;60662;48.810;8.872;2023-03-14T15:17:58;95383.00;;;6.77;57.50
3697;BME280;60662;48.810;8.872;2023-03-14T15:19:02;95388.38;;;7.07;56.36
3697;BME280;60662;48.810;8.872;2023-03-14T15:20:23;95385.56;;;6.94;57.03
3697;BME280;60662;48.810;8.872;2023-03-14T15:21:26;95377.25;;;6.88;57.04
3697;BME280;60662;48.810;8.872;2023-03-14T15:22:28;95376.25;;;7.08;58.46
3697;BME280;60662;48.810;8.872;2023-03-14T15:23:29;95391.03;;;7.06;57.78
3697;BME280;60662;48.810;8.872;2023-03-14T15:24:31;95397.22;;;7.03;57.40
3697;BME280;60662;48.810;8.872;2023-03-14T15:25:32;95378.22;;;7.20;59.35
3697;BME280;60662;48.810;8.872;2023-03-14T15:26:53;95370.13;;;7.42;56.51
3697;BME280;60662;48.810;8.872;2023-03-14T15:27:55;95390.28;;;7.55;55.79
3697;BME280;60662;48.810;8.872;2023-03-14T15:28:56;95374.66;;;7.39;56.18
3697;BME280;60662;48.810;8.872;2023-03-14T15:29:58;95396.97;;;7.43;55.31
3697;BME280;60662;48.810;8.872;2023-03-14T15:31:03;95381.09;;;7.81;54.17
3697;BME280;60662;48.810;8.872;2023-03-14T15:32:05;95401.78;;;7.66;54.37
3697;BME280;60662;48.810;8.872;2023-03-14T15:33:06;95379.41;;;7.96;54.58
3697;BME280;60662;48.810;8.872;2023-03-14T15:34:10;95389.34;;;8.05;54.25